Time;durP1;ratioP1;P1;durP2;ratioP2;P2;SDS_P1;SDS_P2;PMS_P1;PMS_P2;Temp;Humidity;BMP_temperature;BMP_pressure;BME280_temperature;BME280_humidity;BME280_pressure;Samples;Min_cycle;Max_cycle;Signal;HPM_P1;HPM_P2
2022/03/15 00:00:38;;;;;;;19.60;11.73;;;8.00;96.10;;;;;;5021125;28;20442;-65
2022/03/15 00:03:04;;;;;;;22.85;11.20;;;8.20;96.10;;;;;;5021133;28;20033;-64
2022/03/15 00:05:30;;;;;;;21.58;11.75;;;8.30;96.00;;;;;;5020134;28;20685;-65
2022/03/15 00:07:57;;;;;;;23.70;12.15;;;8.40;96.10;;;;;;5021269;28;20029;-64
2022/03/15 00:10:24;;;;;;;21.63;11.70;;;8.50;95.80;;;;;;5021046;28;20040;-65
2022/03/15 00:12:51;;;;;;;23.40;12.52;;;8.50;95.70;;;;;;5020877;28;20140;-65
2022/03/15 00:15:17;;;;;;;22.77;13.00;;;8.60;95.60;;;;;;5016613;28;20061;-65
2022/03/15 00:17:44;;;;;;;22.67;11.18;;;8.50;95.50;;;;;;5020882;28;20476;-65
2022/03/15 00:20:14;;;;;;;18.80;10.70;;;8.60;95.50;;;;;;5017749;28;20076;-65
2022/03/15 00:22:41;;;;;;;23.27;11.60;;;8.50;95.50;;;;;;5021287;28;20061;-64
2022/03/15 00:25:13;;;;;;;23.25;12.38;;;8.50;95.50;;;;;;5019340;28;20025;-64
2022/03/15 00:27:39;;;;;;;19.90;11.30;;;8.40;95.70;;;;;;5020747;28;20026;-64
2022/03/15 00:30:06;;;;;;;23.13;11.75;;;8.40;95.40;;;;;;5018852;28;20810;-64
2022/03/15 00:32:33;;;;;;;21.38;11.23;;;8.30;95.40;;;;;;5020897;28;20044;-64
2022/03/15 00:34:59;;;;;;;21.55;11.05;;;8.30;95.40;;;;;;5028087;28;20762;-70
2022/03/15 00:37:26;;;;;;;18.23;11.25;;;8.30;95.40;;;;;;5020302;28;20041;-70
2022/03/15 00:39:51;;;;;;;19.38;11.00;;;8.30;95.40;;;;;;5019451;28;20131;-69
2022/03/15 00:42:17;;;;;;;18.55;11.45;;;8.30;95.50;;;;;;5020016;28;20033;-70
2022/03/15 00:44:43;;;;;;;18.60;10.93;;;8.30;95.40;;;;;;5020107;28;20029;-70
2022/03/15 00:47:10;;;;;;;19.90;11.20;;;8.20;95.40;;;;;;5019930;28;20595;-69
2022/03/15 00:49:36;;;;;;;21.48;12.23;;;8.10;95.30;;;;;;5020289;28;20032;-70
2022/03/15 00:52:03;;;;;;;19.95;11.27;;;8.00;95.40;;;;;;5018097;28;20026;-69
2022/03/15 00:54:29;;;;;;;20.23;11.68;;;7.90;95.30;;;;;;5014667;28;20033;-70
2022/03/15 00:56:56;;;;;;;20.00;10.77;;;7.70;95.30;;;;;;5018631;28;20033;-70
2022/03/15 00:59:21;;;;;;;19.35;11.27;;;7.60;95.40;;;;;;5019437;28;20033;-70
2022/03/15 01:01:48;;;;;;;22.83;11.05;;;7.50;95.50;;;;;;5019182;28;20454;-70
2022/03/15 01:04:14;;;;;;;21.77;12.15;;;7.40;95.60;;;;;;5019877;28;20120;-70
2022/03/15 01:06:39;;;;;;;21.33;12.05;;;7.30;95.70;;;;;;5018123;28;20710;-70
2022/03/15 01:09:09;;;;;;;21.48;11.27;;;7.20;95.80;;;;;;5020284;28;20029;-69
2022/03/15 01:11:35;;;;;;;20.08;10.55;;;7.10;95.90;;;;;;5019706;28;20676;-70
2022/03/15 01:14:01;;;;;;;19.27;10.52;;;7.10;96.00;;;;;;5020350;28;20077;-70
2022/03/15 01:16:27;;;;;;;18.88;10.90;;;7.00;96.00;;;;;;5018128;28;20760;-69
2022/03/15 01:18:53;;;;;;;22.00;12.23;;;6.90;96.00;;;;;;5023102;28;20103;-69
2022/03/15 01:21:19;;;;;;;22.20;11.65;;;6.90;96.10;;;;;;5023720;28;20029;-69
2022/03/15 01:23:45;;;;;;;20.38;12.20;;;6.90;96.20;;;;;;5027970;28;20048;-69
2022/03/15 01:26:13;;;;;;;18.65;10.68;;;6.80;96.20;;;;;;5021579;28;20112;-69
2022/03/15 01:28:40;;;;;;;20.50;11.60;;;6.70;96.30;;;;;;5023595;28;20136;-70
2022/03/15 01:31:07;;;;;;;23.85;12.43;;;6.70;96.30;;;;;;5021450;28;20022;-70
2022/03/15 01:33:33;;;;;;;21.38;11.50;;;6.60;96.30;;;;;;5024000;28;20036;-70
2022/03/15 01:35:59;;;;;;;18.92;11.07;;;6.60;96.40;;;;;;5022472;28;20033;-70
2022/03/15 01:38:26;;;;;;;20.85;10.45;;;6.50;96.50;;;;;;5019373;28;20033;-70
2022/03/15 01:40:53;;;;;;;19.33;11.00;;;6.50;96.60;;;;;;5031171;28;20557;-70
2022/03/15 01:43:19;;;;;;;22.60;11.30;;;6.50;96.60;;;;;;5022622;28;20033;-70
2022/03/15 01:45:44;;;;;;;20.38;10.77;;;6.50;96.60;;;;;;5022085;28;20037;-70
2022/03/15 01:48:10;;;;;;;18.30;9.77;;;6.40;96.50;;;;;;5022989;28;20393;-70
2022/03/15 01:50:37;;;;;;;16.85;9.73;;;6.40;96.60;;;;;;5021496;28;20121;-71
2022/03/15 01:53:06;;;;;;;18.63;10.40;;;6.40;96.60;;;;;;5023501;28;20247;-71
2022/03/15 01:55:31;;;;;;;18.25;10.68;;;6.40;96.60;;;;;;5022784;28;21004;-70
2022/03/15 01:57:58;;;;;;;19.92;10.70;;;6.30;96.70;;;;;;5019986;28;20033;-70
2022/03/15 02:00:23;;;;;;;22.25;12.23;;;6.40;96.80;;;;;;5021532;28;20029;-70
2022/03/15 02:02:53;;;;;;;21.65;12.20;;;6.40;96.80;;;;;;5020759;28;20055;-69
2022/03/15 02:05:19;;;;;;;23.88;12.27;;;6.30;96.80;;;;;;5022801;28;20033;-70
2022/03/15 02:07:45;;;;;;;24.80;13.40;;;6.40;97.00;;;;;;5022955;28;20033;-71
2022/03/15 02:10:11;;;;;;;22.95;12.40;;;6.30;97.00;;;;;;5023674;28;20842;-70
2022/03/15 02:12:38;;;;;;;27.02;12.95;;;6.30;97.00;;;;;;5022792;28;20037;-71
2022/03/15 02:15:08;;;;;;;24.40;12.48;;;6.30;97.10;;;;;;5021408;28;20053;-70
2022/03/15 02:17:34;;;;;;;29.27;13.00;;;6.30;97.00;;;;;;5019637;28;20045;-70
2022/03/15 02:20:05;;;;;;;21.45;11.75;;;6.20;97.10;;;;;;5024039;28;20022;-70
2022/03/15 02:22:31;;;;;;;22.85;12.15;;;6.20;97.10;;;;;;5019497;28;20821;-70
2022/03/15 02:24:56;;;;;;;21.30;11.40;;;6.30;97.20;;;;;;5022212;28;20063;-69
2022/03/15 02:27:23;;;;;;;23.75;12.50;;;6.20;97.10;;;;;;5021658;28;20049;-69
2022/03/15 02:29:50;;;;;;;24.13;11.50;;;6.20;97.00;;;;;;5021379;28;20075;-69
2022/03/15 02:32:16;;;;;;;21.98;10.68;;;6.20;97.00;;;;;;5022949;28;20040;-70
2022/03/15 02:34:41;;;;;;;23.00;12.15;;;6.10;97.00;;;;;;5023117;28;20040;-69
2022/03/15 02:37:07;;;;;;;20.02;11.15;;;6.10;97.10;;;;;;5023103;28;20140;-70
2022/03/15 02:39:33;;;;;;;19.42;11.55;;;6.10;97.00;;;;;;5023161;28;20041;-69
2022/03/15 02:41:59;;;;;;;24.00;12.00;;;6.10;97.00;;;;;;5023043;28;20044;-69
2022/03/15 02:44:25;;;;;;;25.02;13.80;;;6.10;97.00;;;;;;5019005;28;20129;-69
2022/03/15 02:46:51;;;;;;;25.65;13.15;;;6.00;97.00;;;;;;5022938;28;20175;-69
2022/03/15 02:49:17;;;;;;;26.08;13.45;;;6.00;97.00;;;;;;5023137;28;20212;-70
2022/03/15 02:51:43;;;;;;;23.80;11.90;;;6.00;97.10;;;;;;5023019;28;20040;-69
2022/03/15 02:54:11;;;;;;;27.67;13.13;;;6.00;97.30;;;;;;5023103;28;20032;-70
2022/03/15 02:56:46;;;;;;;25.23;12.88;;;6.00;97.20;;;;;;5021868;28;20030;-69
2022/03/15 02:59:16;;;;;;;30.27;13.75;;;6.00;97.20;;;;;;5022868;28;20646;-69
2022/03/15 03:01:46;;;;;;;29.17;13.38;;;6.00;97.20;;;;;;5023034;28;20421;-69
2022/03/15 03:04:12;;;;;;;26.10;13.38;;;6.00;97.20;;;;;;5022433;28;20087;-70
2022/03/15 03:06:41;;;;;;;24.67;13.13;;;6.00;97.20;;;;;;5022647;28;20030;-70
2022/03/15 03:09:07;;;;;;;20.73;11.10;;;5.90;97.10;;;;;;5021988;28;20025;-70
2022/03/15 03:11:33;;;;;;;18.88;10.73;;;5.90;96.90;;;;;;5022068;28;20752;-69
2022/03/15 03:13:59;;;;;;;23.48;11.68;;;5.80;96.70;;;;;;5022226;28;20056;-69
2022/03/15 03:16:26;;;;;;;19.90;11.70;;;5.70;96.80;;;;;;5022189;28;20025;-69
2022/03/15 03:18:58;;;;;;;21.13;11.82;;;5.70;96.90;;;;;;5021924;28;20763;-70
2022/03/15 03:21:28;;;;;;;20.83;11.43;;;5.70;97.00;;;;;;5022434;28;20044;-70
2022/03/15 03:23:54;;;;;;;19.08;11.02;;;5.60;97.10;;;;;;5022205;28;20033;-69
2022/03/15 03:26:21;;;;;;;20.27;10.88;;;5.60;97.10;;;;;;5021409;28;20142;-69
2022/03/15 03:28:49;;;;;;;19.63;10.52;;;5.60;97.20;;;;;;5022300;28;20029;-68
2022/03/15 03:31:16;;;;;;;21.48;11.95;;;5.60;97.20;;;;;;5018446;28;20021;-69
2022/03/15 03:33:43;;;;;;;19.38;10.20;;;5.60;97.20;;;;;;5028703;28;20149;-69
2022/03/15 03:36:11;;;;;;;19.27;11.02;;;5.60;97.20;;;;;;5019901;28;20030;-69
2022/03/15 03:38:37;;;;;;;23.30;12.00;;;5.50;97.20;;;;;;5022070;28;20033;-69
2022/03/15 03:41:04;;;;;;;23.23;12.00;;;5.50;97.10;;;;;;5021148;28;20072;-70
2022/03/15 03:43:31;;;;;;;26.40;12.65;;;5.50;97.20;;;;;;5022270;28;20430;-69
2022/03/15 03:45:57;;;;;;;25.63;13.15;;;5.50;97.20;;;;;;5021328;28;20036;-70
2022/03/15 03:48:23;;;;;;;22.92;12.82;;;5.50;97.30;;;;;;5021693;28;20489;-69
2022/03/15 03:50:50;;;;;;;28.77;14.38;;;5.50;97.20;;;;;;5022230;28;20033;-70
2022/03/15 03:53:17;;;;;;;30.35;14.70;;;5.50;97.30;;;;;;5020967;28;20674;-69
2022/03/15 03:55:43;;;;;;;28.55;14.18;;;5.50;97.30;;;;;;5021301;28;20037;-70
2022/03/15 03:58:10;;;;;;;29.58;15.00;;;5.50;97.30;;;;;;5018302;28;20084;-70
2022/03/15 04:00:36;;;;;;;27.67;13.80;;;5.50;97.30;;;;;;5022097;28;20029;-70
2022/03/15 04:03:03;;;;;;;25.85;13.85;;;5.50;97.30;;;;;;5020859;28;20470;-70
2022/03/15 04:05:30;;;;;;;27.48;13.40;;;5.50;97.30;;;;;;5021027;28;20056;-71
2022/03/15 04:07:59;;;;;;;23.95;12.50;;;5.40;97.20;;;;;;5021380;28;20116;-70
2022/03/15 04:10:28;;;;;;;30.30;13.48;;;5.40;97.10;;;;;;5020283;28;20029;-70
2022/03/15 04:12:55;;;;;;;31.13;14.98;;;5.30;97.00;;;;;;5020834;28;20045;-71
2022/03/15 04:15:24;;;;;;;28.38;14.55;;;5.30;97.50;;;;;;5020985;28;20052;-70
2022/03/15 04:17:50;;;;;;;28.85;14.60;;;5.30;97.50;;;;;;5021334;28;20459;-70
2022/03/15 04:20:17;;;;;;;31.27;14.48;;;5.30;97.50;;;;;;5021270;28;20563;-69
2022/03/15 04:22:43;;;;;;;29.38;14.77;;;5.40;97.50;;;;;;5021399;28;20095;-71
2022/03/15 04:25:09;;;;;;;31.80;14.82;;;5.40;97.50;;;;;;5019187;28;20125;-70
2022/03/15 04:27:36;;;;;;;30.17;15.05;;;5.40;97.50;;;;;;5020922;28;20849;-69
2022/03/15 04:30:03;;;;;;;27.67;14.05;;;5.40;97.50;;;;;;5021122;28;20060;-70
2022/03/15 04:32:29;;;;;;;25.95;13.43;;;5.30;97.20;;;;;;5020634;28;20037;-70
2022/03/15 04:34:55;;;;;;;29.58;13.95;;;5.20;97.10;;;;;;5020483;28;20029;-70
2022/03/15 04:37:23;;;;;;;24.65;12.60;;;5.20;97.00;;;;;;5020695;28;20022;-70
2022/03/15 04:39:49;;;;;;;30.40;14.48;;;5.20;96.90;;;;;;5018338;28;20477;-70
2022/03/15 04:42:15;;;;;;;26.73;13.50;;;5.10;96.80;;;;;;5020470;28;20033;-70
2022/03/15 04:44:41;;;;;;;29.17;14.20;;;5.00;96.90;;;;;;5020633;28;20038;-70
2022/03/15 04:47:07;;;;;;;32.00;14.90;;;5.00;97.10;;;;;;5020233;28;20520;-70
2022/03/15 04:49:34;;;;;;;29.92;16.23;;;5.10;97.30;;;;;;5020330;28;20025;-70
2022/03/15 04:52:02;;;;;;;30.20;14.63;;;5.00;97.30;;;;;;5021099;28;20576;-69
2022/03/15 04:54:31;;;;;;;28.38;15.25;;;5.10;97.40;;;;;;5020351;28;20048;-69
2022/03/15 04:56:56;;;;;;;28.70;14.43;;;5.00;97.20;;;;;;5024199;28;20034;-69
2022/03/15 04:59:22;;;;;;;32.15;15.80;;;5.00;97.10;;;;;;5024106;28;20105;-70
2022/03/15 05:01:48;;;;;;;28.75;14.18;;;5.00;97.50;;;;;;5023846;28;20025;-70
2022/03/15 05:04:15;;;;;;;32.33;16.02;;;5.00;97.30;;;;;;5023759;28;20437;-70
2022/03/15 05:06:40;;;;;;;34.15;16.42;;;5.00;97.40;;;;;;5024235;28;20045;-71
2022/03/15 05:09:06;;;;;;;32.00;14.60;;;5.10;97.40;;;;;;5023972;28;20471;-70
2022/03/15 05:11:34;;;;;;;34.58;15.48;;;5.10;97.40;;;;;;5023945;28;20595;-70
2022/03/15 05:14:01;;;;;;;34.05;16.30;;;5.10;97.40;;;;;;5023143;28;20037;-69
2022/03/15 05:16:28;;;;;;;32.30;14.57;;;5.10;97.40;;;;;;5023813;28;20033;-70
2022/03/15 05:18:54;;;;;;;37.72;16.73;;;5.10;97.40;;;;;;5024018;28;20037;-70
2022/03/15 05:21:23;;;;;;;31.15;15.35;;;5.20;97.30;;;;;;5023760;28;20243;-69
2022/03/15 05:23:49;;;;;;;38.53;16.23;;;5.20;97.20;;;;;;5023478;28;20041;-69
2022/03/15 05:26:17;;;;;;;32.53;15.38;;;5.20;97.20;;;;;;5022987;28;20033;-70
2022/03/15 05:28:44;;;;;;;36.65;15.60;;;5.20;97.20;;;;;;5030273;28;20026;-70
2022/03/15 05:31:10;;;;;;;38.50;17.10;;;5.20;97.20;;;;;;5023680;28;20672;-70
2022/03/15 05:33:36;;;;;;;38.70;16.73;;;5.30;97.30;;;;;;5024236;28;20033;-71
2022/03/15 05:36:03;;;;;;;36.78;16.15;;;5.30;97.30;;;;;;5022913;28;20386;-71
2022/03/15 05:38:29;;;;;;;32.60;15.25;;;5.30;97.20;;;;;;5022810;28;20037;-69
2022/03/15 05:40:55;;;;;;;34.05;16.15;;;5.30;97.20;;;;;;5021580;28;20037;-70
2022/03/15 05:43:22;;;;;;;39.17;16.42;;;5.40;97.20;;;;;;5026865;28;20500;-70
2022/03/15 05:45:49;;;;;;;36.38;15.38;;;5.50;97.20;;;;;;5022495;28;20048;-70
2022/03/15 05:48:17;;;;;;;40.83;16.73;;;5.60;97.10;;;;;;5023593;28;20048;-69
2022/03/15 05:50:43;;;;;;;34.40;15.95;;;5.70;97.00;;;;;;5023223;28;20111;-71
2022/03/15 05:53:09;;;;;;;37.92;17.42;;;5.80;96.90;;;;;;5023230;28;20133;-71
2022/03/15 05:55:36;;;;;;;35.15;16.48;;;5.90;96.80;;;;;;5022007;28;20033;-70
2022/03/15 05:58:03;;;;;;;33.15;16.33;;;6.00;96.70;;;;;;5023191;28;20052;-71
2022/03/15 06:00:30;;;;;;;33.10;15.85;;;6.10;96.50;;;;;;5022315;28;20033;-71
2022/03/15 06:02:56;;;;;;;37.50;15.95;;;6.20;96.40;;;;;;5023047;28;20088;-70
2022/03/15 06:05:22;;;;;;;34.08;15.40;;;6.30;96.40;;;;;;5022331;28;20052;-70
2022/03/15 06:07:52;;;;;;;34.67;16.80;;;6.40;96.10;;;;;;5022671;28;20036;-71
2022/03/15 06:10:21;;;;;;;32.38;16.33;;;6.50;96.00;;;;;;5023212;28;20029;-71
2022/03/15 06:12:48;;;;;;;35.53;16.15;;;6.60;95.80;;;;;;5022363;28;20034;-70
2022/03/15 06:15:15;;;;;;;37.40;16.67;;;6.70;95.50;;;;;;5022639;28;20451;-69
2022/03/15 06:17:48;;;;;;;31.88;15.50;;;6.80;95.10;;;;;;5023243;28;20032;-72
2022/03/15 06:20:16;;;;;;;30.08;14.63;;;6.80;94.50;;;;;;5021718;28;20048;-71
2022/03/15 06:22:46;;;;;;;31.25;15.00;;;6.90;94.20;;;;;;5022606;28;20034;-71
2022/03/15 06:25:13;;;;;;;30.52;14.40;;;6.90;94.10;;;;;;5022335;28;20251;-69
2022/03/15 06:27:39;;;;;;;30.80;15.75;;;7.00;94.10;;;;;;5018773;28;20144;-69
2022/03/15 06:30:06;;;;;;;30.65;13.88;;;7.10;94.00;;;;;;5022342;28;20026;-71
2022/03/15 06:32:32;;;;;;;27.20;14.88;;;7.20;93.50;;;;;;5022617;28;20045;-71
2022/03/15 06:34:59;;;;;;;26.15;13.07;;;7.20;93.50;;;;;;5022528;28;20118;-71
2022/03/15 06:37:28;;;;;;;40.05;17.75;;;7.30;93.60;;;;;;5021912;28;20095;-69
2022/03/15 06:39:55;;;;;;;31.52;16.33;;;7.40;93.60;;;;;;5019051;28;20122;-70
2022/03/15 06:42:24;;;;;;;35.00;16.75;;;7.50;93.50;;;;;;5023376;28;20036;-71
2022/03/15 06:44:50;;;;;;;32.05;15.40;;;7.60;93.50;;;;;;5019715;28;20085;-71
2022/03/15 06:47:16;;;;;;;32.53;14.55;;;7.80;93.10;;;;;;5022872;28;20536;-71
2022/03/15 06:49:42;;;;;;;27.77;14.90;;;7.90;92.70;;;;;;5022647;28;20107;-70
2022/03/15 06:52:09;;;;;;;29.50;16.55;;;8.10;92.50;;;;;;5022403;28;20028;-70
2022/03/15 06:54:35;;;;;;;24.85;13.75;;;8.20;92.40;;;;;;5024501;28;20026;-70
2022/03/15 06:57:01;;;;;;;30.67;15.88;;;8.40;92.30;;;;;;5022232;28;20568;-71
2022/03/15 06:59:26;;;;;;;31.75;16.27;;;8.60;91.80;;;;;;5022774;28;20033;-71
2022/03/15 07:01:53;;;;;;;29.92;16.02;;;8.70;91.40;;;;;;5022426;28;20053;-71
2022/03/15 07:04:20;;;;;;;28.83;15.57;;;8.90;91.00;;;;;;5022766;28;20037;-71
2022/03/15 07:06:46;;;;;;;29.13;15.00;;;9.10;90.70;;;;;;5021883;28;20048;-70
2022/03/15 07:09:12;;;;;;;28.70;15.57;;;9.30;90.40;;;;;;5022855;28;20035;-70
2022/03/15 07:11:38;;;;;;;31.05;14.80;;;9.40;89.50;;;;;;5022603;28;20029;-69
2022/03/15 07:14:05;;;;;;;23.95;14.13;;;9.60;88.40;;;;;;5024556;28;20049;-70
2022/03/15 07:16:31;;;;;;;30.33;15.73;;;9.80;87.90;;;;;;5021067;28;20044;-69
2022/03/15 07:18:57;;;;;;;26.27;14.02;;;10.00;87.60;;;;;;5022282;28;20393;-70
2022/03/15 07:21:24;;;;;;;26.00;14.77;;;10.20;86.20;;;;;;5022480;28;20084;-70
2022/03/15 07:23:50;;;;;;;26.98;15.30;;;10.40;85.70;;;;;;5021757;28;21040;-69
2022/03/15 07:26:16;;;;;;;29.70;14.57;;;10.60;84.40;;;;;;5020296;28;20159;-70
2022/03/15 07:28:41;;;;;;;27.25;15.13;;;11.00;84.10;;;;;;5022382;28;20703;-70
2022/03/15 07:31:07;;;;;;;28.55;15.40;;;11.90;81.60;;;;;;5021421;28;20033;-70
2022/03/15 07:33:33;;;;;;;22.98;13.95;;;13.00;74.90;;;;;;5022503;28;20037;-68
2022/03/15 07:35:59;;;;;;;23.35;14.43;;;14.40;68.50;;;;;;5019712;28;20029;-70
2022/03/15 07:38:26;;;;;;;28.52;14.48;;;16.20;61.10;;;;;;5026257;28;20073;-68
2022/03/15 07:40:52;;;;;;;23.25;13.88;;;17.50;56.80;;;;;;5021897;28;20406;-68
2022/03/15 07:43:23;;;;;;;24.67;14.10;;;18.30;54.70;;;;;;5021829;28;20818;-68
2022/03/15 07:45:50;;;;;;;22.35;13.80;;;19.30;51.00;;;;;;5020906;28;20068;-68
2022/03/15 07:48:19;;;;;;;23.38;13.50;;;19.80;49.70;;;;;;5021178;28;20021;-68
2022/03/15 07:50:45;;;;;;;22.20;13.40;;;20.20;48.80;;;;;;5021171;28;20018;-69
2022/03/15 07:53:11;;;;;;;25.50;13.88;;;20.80;47.60;;;;;;5021492;28;20017;-69
2022/03/15 07:55:36;;;;;;;21.15;13.82;;;20.90;47.10;;;;;;5021272;28;20467;-69
2022/03/15 07:58:03;;;;;;;24.20;14.48;;;21.10;46.60;;;;;;5023956;28;20742;-68
2022/03/15 08:00:28;;;;;;;22.38;14.90;;;21.20;45.20;;;;;;5021467;28;20030;-69
2022/03/15 08:02:54;;;;;;;19.33;13.05;;;20.90;45.70;;;;;;5021001;28;20752;-69
2022/03/15 08:05:21;;;;;;;20.90;13.98;;;20.90;45.80;;;;;;5020792;28;20504;-68
2022/03/15 08:07:47;;;;;;;22.90;14.15;;;21.40;45.40;;;;;;5020745;28;20029;-68
2022/03/15 08:10:13;;;;;;;21.83;15.35;;;21.50;44.70;;;;;;5021695;28;20098;-68
2022/03/15 08:12:39;;;;;;;19.80;13.40;;;22.10;44.20;;;;;;5021049;28;20037;-68
2022/03/15 08:15:06;;;;;;;24.05;15.85;;;21.70;43.90;;;;;;5019473;28;20091;-69
2022/03/15 08:17:33;;;;;;;24.15;14.43;;;21.90;44.30;;;;;;5021305;28;20025;-69
2022/03/15 08:20:00;;;;;;;27.13;15.40;;;22.00;43.30;;;;;;5021042;28;20647;-72
2022/03/15 08:22:28;;;;;;;26.35;15.80;;;21.10;45.20;;;;;;5020863;28;20026;-69
2022/03/15 08:24:55;;;;;;;22.42;14.88;;;20.20;47.40;;;;;;5021078;28;20560;-71
2022/03/15 08:27:21;;;;;;;28.15;16.65;;;19.30;50.30;;;;;;5018939;28;20035;-71
2022/03/15 08:29:47;;;;;;;27.52;14.68;;;18.70;51.70;;;;;;5025206;28;20048;-72
2022/03/15 08:32:13;;;;;;;21.75;14.98;;;18.50;52.00;;;;;;5025071;28;20033;-70
2022/03/15 08:34:39;;;;;;;25.08;15.80;;;18.80;51.80;;;;;;5025061;28;20033;-73
2022/03/15 08:37:05;;;;;;;26.73;16.17;;;19.00;51.00;;;;;;5024177;28;20108;-72
2022/03/15 08:39:31;;;;;;;25.67;15.45;;;19.60;50.00;;;;;;5025473;28;20037;-73
2022/03/15 08:41:57;;;;;;;29.95;20.02;;;20.80;47.60;;;;;;5023037;28;20115;-72
2022/03/15 08:44:23;;;;;;;23.60;15.60;;;21.30;47.00;;;;;;5024642;28;20033;-71
2022/03/15 08:46:50;;;;;;;26.00;16.38;;;21.10;46.30;;;;;;5025112;28;20025;-71
2022/03/15 08:49:18;;;;;;;26.35;16.70;;;20.70;47.00;;;;;;5025256;28;20041;-70
2022/03/15 08:51:44;;;;;;;26.90;16.70;;;20.40;47.60;;;;;;5024752;28;20029;-71
2022/03/15 08:54:10;;;;;;;30.00;18.42;;;20.30;49.20;;;;;;5024862;28;20033;-70
2022/03/15 08:56:41;;;;;;;28.88;18.60;;;20.10;48.90;;;;;;5024704;28;20098;-72
2022/03/15 08:59:08;;;;;;;23.70;15.95;;;19.30;50.60;;;;;;5024626;28;20037;-74
2022/03/15 09:01:34;;;;;;;28.83;16.95;;;19.20;51.60;;;;;;5020988;28;20029;-72
2022/03/15 09:03:59;;;;;;;26.05;16.60;;;20.30;48.90;;;;;;5022158;28;20747;-72
2022/03/15 09:06:25;;;;;;;33.13;18.50;;;21.30;46.90;;;;;;5024017;28;20021;-69
2022/03/15 09:08:51;;;;;;;32.60;19.02;;;21.90;44.70;;;;;;5024286;28;20025;-71
2022/03/15 09:11:16;;;;;;;26.67;16.65;;;22.50;43.70;;;;;;5023561;28;20033;-70
2022/03/15 09:13:42;;;;;;;37.08;19.13;;;23.00;43.00;;;;;;5023688;28;20109;-70
2022/03/15 09:16:08;;;;;;;31.77;17.75;;;23.50;42.00;;;;;;5023271;28;20037;-69
2022/03/15 09:18:34;;;;;;;28.10;17.02;;;23.60;41.70;;;;;;5023960;28;20087;-68
2022/03/15 09:21:00;;;;;;;27.25;16.98;;;24.10;41.10;;;;;;5023207;28;20801;-68
2022/03/15 09:23:27;;;;;;;25.27;16.70;;;24.30;40.00;;;;;;5023891;28;20481;-69
2022/03/15 09:25:52;;;;;;;26.05;17.48;;;23.80;40.30;;;;;;5022670;28;20037;-69
2022/03/15 09:28:18;;;;;;;27.27;17.13;;;23.20;41.80;;;;;;5019629;28;20112;-69
2022/03/15 09:30:45;;;;;;;23.35;16.35;;;22.90;42.30;;;;;;5023368;28;20094;-69
2022/03/15 09:33:12;;;;;;;28.83;17.25;;;23.10;43.70;;;;;;5020647;28;20033;-68
2022/03/15 09:35:41;;;;;;;26.23;16.45;;;22.80;43.30;;;;;;5022636;28;20771;-69
2022/03/15 09:38:08;;;;;;;30.60;17.15;;;22.30;44.80;;;;;;5024130;28;20802;-68
2022/03/15 09:40:33;;;;;;;37.70;19.50;;;21.60;46.50;;;;;;5023780;28;20170;-70
2022/03/15 09:43:02;;;;;;;34.40;18.67;;;20.40;47.90;;;;;;5023000;28;20108;-69
2022/03/15 09:45:34;;;;;;;30.23;17.75;;;20.00;49.30;;;;;;5024798;28;20481;-69
2022/03/15 09:48:03;;;;;;;32.38;18.15;;;20.10;50.50;;;;;;5021898;28;20053;-71
2022/03/15 09:50:30;;;;;;;30.25;17.17;;;20.10;49.30;;;;;;5023910;28;20033;-69
2022/03/15 09:52:57;;;;;;;28.73;18.25;;;19.70;49.60;;;;;;5028061;28;20109;-70
2022/03/15 09:55:24;;;;;;;32.75;18.73;;;19.40;51.30;;;;;;5024293;28;20216;-70
2022/03/15 09:57:51;;;;;;;29.45;17.75;;;19.30;51.50;;;;;;5022130;28;20683;-69
2022/03/15 10:00:18;;;;;;;27.70;17.08;;;19.20;51.80;;;;;;5023770;28;20037;-68
2022/03/15 10:02:44;;;;;;;32.30;18.52;;;19.80;50.00;;;;;;5021876;28;20056;-69
2022/03/15 10:05:12;;;;;;;28.08;17.48;;;20.80;48.00;;;;;;5021771;28;20120;-68
2022/03/15 10:07:38;;;;;;;33.17;18.42;;;21.50;46.60;;;;;;5025554;28;20040;-68
2022/03/15 10:10:07;;;;;;;26.80;16.70;;;22.60;43.80;;;;;;5024877;28;20040;-70
2022/03/15 10:12:34;;;;;;;27.30;17.08;;;23.30;43.20;;;;;;5022401;28;20547;-70
2022/03/15 10:15:19;;;;;;;27.08;15.57;;;23.60;42.50;;;;;;5022759;28;20119;-72
2022/03/15 10:17:56;;;;;;;27.65;16.05;;;23.10;42.80;;;;;;5019963;28;20025;-70
2022/03/15 10:20:31;;;;;;;26.13;16.73;;;23.40;42.50;;;;;;5022698;28;20149;-71
2022/03/15 10:22:59;;;;;;;31.75;17.58;;;24.00;41.10;;;;;;5021062;28;20112;-70
2022/03/15 10:25:27;;;;;;;32.90;18.98;;;24.10;40.50;;;;;;5022568;28;20156;-70
2022/03/15 10:27:55;;;;;;;26.88;16.83;;;23.80;40.90;;;;;;5022162;28;20026;-71
2022/03/15 10:30:22;;;;;;;26.75;16.63;;;23.70;41.50;;;;;;5023744;28;20367;-69
2022/03/15 10:32:50;;;;;;;28.23;16.98;;;23.20;42.20;;;;;;5022801;28;20128;-70
2022/03/15 10:35:24;;;;;;;27.88;16.23;;;22.70;42.60;;;;;;5017957;28;20044;-70
2022/03/15 10:37:51;;;;;;;28.35;16.05;;;22.30;44.20;;;;;;5022335;28;20029;-70
2022/03/15 10:40:18;;;;;;;30.73;16.17;;;22.30;43.30;;;;;;5022482;28;20026;-70
2022/03/15 10:42:46;;;;;;;28.48;16.15;;;22.40;43.40;;;;;;5022792;28;20061;-69
2022/03/15 10:45:18;;;;;;;32.78;16.98;;;22.30;43.20;;;;;;5022166;28;20034;-70
2022/03/15 10:47:52;;;;;;;27.50;16.60;;;22.00;43.30;;;;;;5019190;28;20065;-68
2022/03/15 10:50:19;;;;;;;29.50;15.20;;;21.70;44.70;;;;;;5022291;28;20033;-69
2022/03/15 10:52:45;;;;;;;25.40;15.50;;;21.70;44.80;;;;;;5022411;28;20037;-69
2022/03/15 10:55:28;;;;;;;27.65;15.30;;;21.40;45.50;;;;;;5022293;28;20139;-68
2022/03/15 10:57:58;;;;;;;28.25;14.77;;;21.20;46.40;;;;;;5020480;28;20045;-69
2022/03/15 11:00:30;;;;;;;26.73;16.90;;;20.90;47.40;;;;;;5022746;28;20036;-69
2022/03/15 11:02:57;;;;;;;26.98;15.23;;;20.50;47.30;;;;;;5019036;28;20032;-70
2022/03/15 11:05:34;;;;;;;30.58;16.60;;;19.90;48.00;;;;;;5021757;28;20561;-69
2022/03/15 11:08:05;;;;;;;30.05;16.08;;;19.50;49.40;;;;;;5022509;28;20034;-69
2022/03/15 11:10:31;;;;;;;26.92;15.52;;;19.50;50.00;;;;;;5022994;28;20025;-70
2022/03/15 11:13:02;;;;;;;26.60;14.68;;;19.70;48.30;;;;;;5021675;28;20397;-70
2022/03/15 11:15:30;;;;;;;28.88;16.30;;;19.80;49.00;;;;;;5019055;28;20590;-69
2022/03/15 11:18:04;;;;;;;25.90;15.70;;;20.00;48.20;;;;;;5022393;28;20052;-68
2022/03/15 11:20:37;;;;;;;28.08;14.60;;;19.90;48.30;;;;;;5022705;28;20132;-69
2022/03/15 11:23:05;;;;;;;33.95;15.57;;;19.40;49.10;;;;;;5021275;28;20103;-66
2022/03/15 11:25:40;;;;;;;25.40;14.65;;;19.00;49.60;;;;;;5021547;28;20079;-70
2022/03/15 11:28:12;;;;;;;27.67;13.90;;;18.80;49.90;;;;;;5022060;28;20397;-70
2022/03/15 11:30:39;;;;;;;29.23;13.23;;;18.50;50.30;;;;;;5022117;28;20025;-70
2022/03/15 11:33:06;;;;;;;27.48;13.75;;;18.30;50.50;;;;;;5021433;28;20044;-70
2022/03/15 11:35:34;;;;;;;27.10;13.70;;;18.30;49.50;;;;;;5021477;28;20021;-68
2022/03/15 11:38:03;;;;;;;26.92;15.25;;;18.50;50.20;;;;;;5021172;28;20052;-71
2022/03/15 11:40:29;;;;;;;28.27;14.55;;;18.60;49.90;;;;;;5021479;28;20067;-71
2022/03/15 11:43:33;;;;;;;28.70;13.82;;;18.70;49.90;;;;;;5021425;28;20037;-71
2022/03/15 11:46:13;;;;;;;29.65;14.05;;;18.70;49.10;;;;;;5019896;28;20832;-72
2022/03/15 11:48:58;;;;;;;25.40;12.80;;;18.60;50.20;;;;;;5023050;28;20037;-71
2022/03/15 11:51:36;;;;;;;23.25;12.07;;;18.60;48.30;;;;;;5019357;28;20040;-72
2022/03/15 11:54:14;;;;;;;24.70;13.38;;;18.30;49.10;;;;;;5021458;28;20485;-70
2022/03/15 11:57:10;;;;;;;28.23;14.45;;;18.20;50.50;;;;;;5018059;28;20037;-71
2022/03/15 11:59:50;;;;;;;25.65;14.35;;;17.90;50.80;;;;;;5019312;28;20048;-69
2022/03/15 12:02:32;;;;;;;28.90;14.25;;;17.60;51.20;;;;;;5017875;28;20034;-71
2022/03/15 12:04:59;;;;;;;25.33;14.00;;;17.20;52.00;;;;;;5020440;28;20029;-70
2022/03/15 12:07:36;;;;;;;26.45;14.40;;;17.10;52.90;;;;;;5021284;28;20164;-70
2022/03/15 12:10:10;;;;;;;27.00;14.85;;;17.30;53.60;;;;;;5020679;28;20363;-70
2022/03/15 12:12:38;;;;;;;25.55;14.40;;;17.50;52.00;;;;;;5020960;28;20025;-69
2022/03/15 12:15:15;;;;;;;28.15;13.70;;;17.80;52.50;;;;;;5020099;28;20034;-70
2022/03/15 12:17:42;;;;;;;23.95;13.68;;;17.90;51.00;;;;;;5017930;28;20040;-70
2022/03/15 12:20:14;;;;;;;28.63;12.88;;;17.90;51.50;;;;;;5020841;28;20052;-70
2022/03/15 12:22:41;;;;;;;24.70;13.93;;;17.70;51.20;;;;;;5021193;28;20112;-72
2022/03/15 12:25:07;;;;;;;23.58;13.35;;;17.60;51.60;;;;;;5023178;28;20013;-71
2022/03/15 12:27:43;;;;;;;22.38;11.88;;;17.60;51.30;;;;;;5017558;28;20079;-70
2022/03/15 12:30:11;;;;;;;25.17;12.98;;;17.70;52.80;;;;;;5020682;28;20071;-69
2022/03/15 12:32:37;;;;;;;20.63;11.40;;;18.00;51.00;;;;;;5019793;28;20108;-69
2022/03/15 12:35:03;;;;;;;23.45;11.35;;;18.10;49.20;;;;;;5020304;28;20041;-72